sensor_id;sensor_type;location;lat;lon;timestamp;P1;durP1;ratioP1;P2;durP2;ratioP2
13868;SDS011;7004;48.206;16.402;2023-04-24T00:00:31;4.37;;;3.83;;
13868;SDS011;7004;48.206;16.402;2023-04-24T00:02:57;4.47;;;3.60;;
13868;SDS011;7004;48.206;16.402;2023-04-24T00:05:23;5.30;;;3.90;;
13868;SDS011;7004;48.206;16.402;2023-04-24T00:07:50;4.07;;;3.67;;
13868;SDS011;7004;48.206;16.402;2023-04-24T00:10:18;5.83;;;4.10;;
13868;SDS011;7004;48.206;16.402;2023-04-24T00:12:44;5.10;;;3.93;;
13868;SDS011;7004;48.206;16.402;2023-04-24T00:15:11;4.83;;;3.83;;
13868;SDS011;7004;48.206;16.402;2023-04-24T00:17:37;6.73;;;3.93;;
13868;SDS011;7004;48.206;16.402;2023-04-24T00:20:04;5.00;;;4.27;;
13868;SDS011;7004;48.206;16.402;2023-04-24T00:22:32;4.90;;;4.10;;
13868;SDS011;7004;48.206;16.402;2023-04-24T00:24:58;5.30;;;4.00;;
13868;SDS011;7004;48.206;16.402;2023-04-24T00:27:24;4.93;;;4.23;;
13868;SDS011;7004;48.206;16.402;2023-04-24T00:29:50;4.50;;;4.10;;
13868;SDS011;7004;48.206;16.402;2023-04-24T00:32:17;5.37;;;4.40;;
13868;SDS011;7004;48.206;16.402;2023-04-24T00:34:43;4.90;;;4.27;;
13868;SDS011;7004;48.206;16.402;2023-04-24T00:37:09;4.90;;;4.37;;
13868;SDS011;7004;48.206;16.402;2023-04-24T00:39:36;4.27;;;3.83;;
13868;SDS011;7004;48.206;16.402;2023-04-24T00:42:03;4.40;;;4.00;;
13868;SDS011;7004;48.206;16.402;2023-04-24T00:44:32;4.97;;;4.17;;
13868;SDS011;7004;48.206;16.402;2023-04-24T00:47:00;5.10;;;4.23;;
13868;SDS011;7004;48.206;16.402;2023-04-24T00:49:27;4.20;;;3.80;;
13868;SDS011;7004;48.206;16.402;2023-04-24T00:51:53;4.47;;;4.00;;
13868;SDS011;7004;48.206;16.402;2023-04-24T00:54:19;5.00;;;3.80;;
13868;SDS011;7004;48.206;16.402;2023-04-24T00:56:45;4.80;;;3.87;;
13868;SDS011;7004;48.206;16.402;2023-04-24T00:59:12;5.03;;;4.20;;
13868;SDS011;7004;48.206;16.402;2023-04-24T01:01:41;5.00;;;4.40;;
13868;SDS011;7004;48.206;16.402;2023-04-24T01:04:08;5.00;;;3.90;;
13868;SDS011;7004;48.206;16.402;2023-04-24T01:06:36;5.40;;;4.40;;
13868;SDS011;7004;48.206;16.402;2023-04-24T01:09:05;6.47;;;4.27;;
13868;SDS011;7004;48.206;16.402;2023-04-24T01:11:36;5.50;;;4.93;;
13868;SDS011;7004;48.206;16.402;2023-04-24T01:14:02;5.70;;;4.53;;
13868;SDS011;7004;48.206;16.402;2023-04-24T01:16:29;5.40;;;4.23;;
13868;SDS011;7004;48.206;16.402;2023-04-24T01:18:55;5.03;;;4.30;;
13868;SDS011;7004;48.206;16.402;2023-04-24T01:21:21;6.50;;;4.33;;
13868;SDS011;7004;48.206;16.402;2023-04-24T01:23:52;4.60;;;4.10;;
13868;SDS011;7004;48.206;16.402;2023-04-24T01:26:21;7.00;;;4.57;;
13868;SDS011;7004;48.206;16.402;2023-04-24T01:28:48;5.00;;;4.50;;
13868;SDS011;7004;48.206;16.402;2023-04-24T01:31:14;7.17;;;4.57;;
13868;SDS011;7004;48.206;16.402;2023-04-24T01:33:41;5.83;;;4.70;;
13868;SDS011;7004;48.206;16.402;2023-04-24T01:36:09;5.97;;;5.00;;
13868;SDS011;7004;48.206;16.402;2023-04-24T01:38:37;5.87;;;4.67;;
13868;SDS011;7004;48.206;16.402;2023-04-24T01:41:03;5.87;;;4.70;;
13868;SDS011;7004;48.206;16.402;2023-04-24T01:43:29;5.50;;;4.90;;
13868;SDS011;7004;48.206;16.402;2023-04-24T01:45:56;5.13;;;4.33;;
13868;SDS011;7004;48.206;16.402;2023-04-24T01:48:22;5.00;;;4.50;;
13868;SDS011;7004;48.206;16.402;2023-04-24T01:50:48;5.47;;;4.97;;
13868;SDS011;7004;48.206;16.402;2023-04-24T01:53:15;6.97;;;4.80;;
13868;SDS011;7004;48.206;16.402;2023-04-24T01:55:42;5.37;;;4.87;;
13868;SDS011;7004;48.206;16.402;2023-04-24T01:58:08;6.00;;;4.97;;
13868;SDS011;7004;48.206;16.402;2023-04-24T02:00:34;6.23;;;4.77;;
13868;SDS011;7004;48.206;16.402;2023-04-24T02:03:01;5.00;;;4.50;;
13868;SDS011;7004;48.206;16.402;2023-04-24T02:05:27;6.43;;;4.73;;
13868;SDS011;7004;48.206;16.402;2023-04-24T02:07:53;5.00;;;4.50;;
13868;SDS011;7004;48.206;16.402;2023-04-24T02:10:20;5.53;;;4.80;;
13868;SDS011;7004;48.206;16.402;2023-04-24T02:12:46;6.20;;;5.60;;
13868;SDS011;7004;48.206;16.402;2023-04-24T02:15:12;6.40;;;5.40;;
13868;SDS011;7004;48.206;16.402;2023-04-24T02:17:38;5.00;;;4.50;;
13868;SDS011;7004;48.206;16.402;2023-04-24T02:20:06;4.47;;;4.07;;
13868;SDS011;7004;48.206;16.402;2023-04-24T02:22:33;5.20;;;3.93;;
13868;SDS011;7004;48.206;16.402;2023-04-24T02:25:00;8.70;;;4.50;;
13868;SDS011;7004;48.206;16.402;2023-04-24T02:27:26;4.10;;;3.70;;
13868;SDS011;7004;48.206;16.402;2023-04-24T02:29:52;4.63;;;4.13;;
13868;SDS011;7004;48.206;16.402;2023-04-24T02:32:18;5.03;;;3.23;;
13868;SDS011;7004;48.206;16.402;2023-04-24T02:34:45;3.97;;;3.57;;
13868;SDS011;7004;48.206;16.402;2023-04-24T02:37:11;3.70;;;3.40;;
13868;SDS011;7004;48.206;16.402;2023-04-24T02:39:37;4.50;;;3.33;;
13868;SDS011;7004;48.206;16.402;2023-04-24T02:42:03;3.43;;;3.10;;
13868;SDS011;7004;48.206;16.402;2023-04-24T02:44:29;3.77;;;3.27;;
13868;SDS011;7004;48.206;16.402;2023-04-24T02:46:55;5.97;;;3.63;;
13868;SDS011;7004;48.206;16.402;2023-04-24T02:49:22;4.67;;;3.23;;
13868;SDS011;7004;48.206;16.402;2023-04-24T02:51:48;3.77;;;3.37;;
13868;SDS011;7004;48.206;16.402;2023-04-24T02:54:14;4.27;;;3.40;;
13868;SDS011;7004;48.206;16.402;2023-04-24T02:56:40;4.07;;;3.50;;
13868;SDS011;7004;48.206;16.402;2023-04-24T02:59:07;4.13;;;3.20;;
13868;SDS011;7004;48.206;16.402;2023-04-24T03:01:33;3.77;;;3.17;;
13868;SDS011;7004;48.206;16.402;2023-04-24T03:04:00;3.60;;;3.07;;
13868;SDS011;7004;48.206;16.402;2023-04-24T03:06:26;3.80;;;3.40;;
13868;SDS011;7004;48.206;16.402;2023-04-24T03:08:52;4.07;;;2.93;;
13868;SDS011;7004;48.206;16.402;2023-04-24T03:11:19;3.70;;;2.83;;
13868;SDS011;7004;48.206;16.402;2023-04-24T03:13:45;3.07;;;2.70;;
13868;SDS011;7004;48.206;16.402;2023-04-24T03:16:12;3.10;;;2.80;;
13868;SDS011;7004;48.206;16.402;2023-04-24T03:18:39;3.90;;;3.23;;
13868;SDS011;7004;48.206;16.402;2023-04-24T03:21:22;5.47;;;3.10;;
13868;SDS011;7004;48.206;16.402;2023-04-24T03:23:56;2.63;;;2.43;;
13868;SDS011;7004;48.206;16.402;2023-04-24T03:26:27;3.10;;;2.80;;
13868;SDS011;7004;48.206;16.402;2023-04-24T03:28:54;3.20;;;2.60;;
13868;SDS011;7004;48.206;16.402;2023-04-24T03:31:21;3.63;;;3.10;;
13868;SDS011;7004;48.206;16.402;2023-04-24T03:33:49;3.23;;;2.80;;
13868;SDS011;7004;48.206;16.402;2023-04-24T03:36:15;3.50;;;3.00;;
13868;SDS011;7004;48.206;16.402;2023-04-24T03:38:41;3.37;;;3.00;;
13868;SDS011;7004;48.206;16.402;2023-04-24T03:41:08;3.23;;;2.90;;
13868;SDS011;7004;48.206;16.402;2023-04-24T03:43:34;3.23;;;2.70;;
13868;SDS011;7004;48.206;16.402;2023-04-24T03:46:01;3.03;;;2.83;;
13868;SDS011;7004;48.206;16.402;2023-04-24T03:48:27;3.63;;;3.10;;
13868;SDS011;7004;48.206;16.402;2023-04-24T03:50:53;3.13;;;2.83;;
13868;SDS011;7004;48.206;16.402;2023-04-24T03:53:19;3.57;;;3.07;;
13868;SDS011;7004;48.206;16.402;2023-04-24T03:55:45;3.57;;;3.17;;
13868;SDS011;7004;48.206;16.402;2023-04-24T03:58:12;3.87;;;3.43;;
13868;SDS011;7004;48.206;16.402;2023-04-24T04:00:39;3.17;;;2.87;;
13868;SDS011;7004;48.206;16.402;2023-04-24T04:03:06;4.10;;;3.10;;
13868;SDS011;7004;48.206;16.402;2023-04-24T04:05:32;3.97;;;3.13;;
13868;SDS011;7004;48.206;16.402;2023-04-24T04:07:58;5.10;;;3.07;;
13868;SDS011;7004;48.206;16.402;2023-04-24T04:10:24;3.30;;;3.00;;
13868;SDS011;7004;48.206;16.402;2023-04-24T04:12:50;3.43;;;3.07;;
13868;SDS011;7004;48.206;16.402;2023-04-24T04:15:16;2.90;;;2.70;;
13868;SDS011;7004;48.206;16.402;2023-04-24T04:17:43;3.27;;;2.97;;
13868;SDS011;7004;48.206;16.402;2023-04-24T04:20:09;2.53;;;2.33;;
13868;SDS011;7004;48.206;16.402;2023-04-24T04:22:36;3.57;;;2.70;;
13868;SDS011;7004;48.206;16.402;2023-04-24T04:25:03;4.63;;;3.10;;
13868;SDS011;7004;48.206;16.402;2023-04-24T04:27:29;3.20;;;2.90;;
13868;SDS011;7004;48.206;16.402;2023-04-24T04:30:03;2.93;;;2.63;;
13868;SDS011;7004;48.206;16.402;2023-04-24T04:32:31;3.10;;;2.70;;
13868;SDS011;7004;48.206;16.402;2023-04-24T04:34:59;3.20;;;2.40;;
13868;SDS011;7004;48.206;16.402;2023-04-24T04:37:32;2.70;;;2.50;;
13868;SDS011;7004;48.206;16.402;2023-04-24T04:39:59;2.93;;;2.57;;
13868;SDS011;7004;48.206;16.402;2023-04-24T04:42:25;3.17;;;2.70;;
13868;SDS011;7004;48.206;16.402;2023-04-24T04:44:54;3.73;;;2.43;;
13868;SDS011;7004;48.206;16.402;2023-04-24T04:47:22;3.30;;;2.30;;
13868;SDS011;7004;48.206;16.402;2023-04-24T04:49:48;2.93;;;2.63;;
13868;SDS011;7004;48.206;16.402;2023-04-24T04:52:17;2.40;;;2.20;;
13868;SDS011;7004;48.206;16.402;2023-04-24T04:54:44;2.63;;;2.20;;
13868;SDS011;7004;48.206;16.402;2023-04-24T04:57:11;3.30;;;2.37;;
13868;SDS011;7004;48.206;16.402;2023-04-24T04:59:38;2.63;;;2.37;;
13868;SDS011;7004;48.206;16.402;2023-04-24T05:02:04;1.90;;;1.77;;
13868;SDS011;7004;48.206;16.402;2023-04-24T05:04:30;2.63;;;2.43;;
13868;SDS011;7004;48.206;16.402;2023-04-24T05:06:57;3.13;;;2.10;;
13868;SDS011;7004;48.206;16.402;2023-04-24T05:09:23;2.70;;;2.10;;
13868;SDS011;7004;48.206;16.402;2023-04-24T05:11:52;2.50;;;2.30;;
13868;SDS011;7004;48.206;16.402;2023-04-24T05:14:18;2.20;;;2.00;;
13868;SDS011;7004;48.206;16.402;2023-04-24T05:16:44;2.30;;;2.00;;
13868;SDS011;7004;48.206;16.402;2023-04-24T05:19:11;2.23;;;2.03;;
13868;SDS011;7004;48.206;16.402;2023-04-24T05:21:39;2.37;;;2.17;;
13868;SDS011;7004;48.206;16.402;2023-04-24T05:24:06;2.20;;;2.00;;
13868;SDS011;7004;48.206;16.402;2023-04-24T05:26:32;2.60;;;2.30;;
13868;SDS011;7004;48.206;16.402;2023-04-24T05:28:58;2.20;;;2.00;;
13868;SDS011;7004;48.206;16.402;2023-04-24T05:31:24;2.53;;;2.10;;
13868;SDS011;7004;48.206;16.402;2023-04-24T05:33:51;4.87;;;2.10;;
13868;SDS011;7004;48.206;16.402;2023-04-24T05:36:17;2.83;;;2.13;;
13868;SDS011;7004;48.206;16.402;2023-04-24T05:38:43;2.77;;;2.20;;
13868;SDS011;7004;48.206;16.402;2023-04-24T05:41:09;3.00;;;2.13;;
13868;SDS011;7004;48.206;16.402;2023-04-24T05:43:35;2.40;;;2.20;;
13868;SDS011;7004;48.206;16.402;2023-04-24T05:46:01;2.30;;;2.10;;
13868;SDS011;7004;48.206;16.402;2023-04-24T05:48:27;2.30;;;2.10;;
13868;SDS011;7004;48.206;16.402;2023-04-24T05:50:53;2.60;;;2.40;;
13868;SDS011;7004;48.206;16.402;2023-04-24T05:53:20;3.63;;;2.30;;
13868;SDS011;7004;48.206;16.402;2023-04-24T05:55:47;3.20;;;1.90;;
13868;SDS011;7004;48.206;16.402;2023-04-24T05:58:13;2.20;;;2.00;;
13868;SDS011;7004;48.206;16.402;2023-04-24T06:00:40;2.90;;;2.30;;
13868;SDS011;7004;48.206;16.402;2023-04-24T06:03:07;2.10;;;1.90;;
13868;SDS011;7004;48.206;16.402;2023-04-24T06:05:34;3.13;;;2.40;;
13868;SDS011;7004;48.206;16.402;2023-04-24T06:08:00;2.33;;;2.13;;
13868;SDS011;7004;48.206;16.402;2023-04-24T06:10:27;2.40;;;2.20;;
13868;SDS011;7004;48.206;16.402;2023-04-24T06:12:53;2.90;;;2.60;;
13868;SDS011;7004;48.206;16.402;2023-04-24T06:15:21;2.37;;;2.17;;
13868;SDS011;7004;48.206;16.402;2023-04-24T06:17:47;3.93;;;2.10;;
13868;SDS011;7004;48.206;16.402;2023-04-24T06:20:13;1.97;;;1.87;;
13868;SDS011;7004;48.206;16.402;2023-04-24T06:22:39;1.80;;;1.70;;
13868;SDS011;7004;48.206;16.402;2023-04-24T06:25:06;2.40;;;2.13;;
13868;SDS011;7004;48.206;16.402;2023-04-24T06:27:32;2.47;;;2.07;;
13868;SDS011;7004;48.206;16.402;2023-04-24T06:29:59;3.40;;;2.10;;
13868;SDS011;7004;48.206;16.402;2023-04-24T06:32:25;3.07;;;2.10;;
13868;SDS011;7004;48.206;16.402;2023-04-24T06:34:53;2.20;;;1.90;;
13868;SDS011;7004;48.206;16.402;2023-04-24T06:37:19;2.00;;;1.90;;
13868;SDS011;7004;48.206;16.402;2023-04-24T06:39:46;2.30;;;2.10;;
13868;SDS011;7004;48.206;16.402;2023-04-24T06:42:12;2.27;;;2.07;;
13868;SDS011;7004;48.206;16.402;2023-04-24T06:44:38;1.93;;;1.80;;
13868;SDS011;7004;48.206;16.402;2023-04-24T06:47:08;2.30;;;2.10;;
13868;SDS011;7004;48.206;16.402;2023-04-24T06:49:36;2.53;;;2.17;;
13868;SDS011;7004;48.206;16.402;2023-04-24T06:52:02;2.30;;;2.10;;
13868;SDS011;7004;48.206;16.402;2023-04-24T06:54:29;2.00;;;1.80;;
13868;SDS011;7004;48.206;16.402;2023-04-24T06:56:56;2.30;;;2.10;;
13868;SDS011;7004;48.206;16.402;2023-04-24T06:59:23;2.60;;;2.00;;
13868;SDS011;7004;48.206;16.402;2023-04-24T07:01:50;2.20;;;2.00;;
13868;SDS011;7004;48.206;16.402;2023-04-24T07:04:16;2.40;;;2.20;;
13868;SDS011;7004;48.206;16.402;2023-04-24T07:06:43;2.10;;;1.90;;
13868;SDS011;7004;48.206;16.402;2023-04-24T07:09:11;1.90;;;1.70;;
13868;SDS011;7004;48.206;16.402;2023-04-24T07:11:39;1.97;;;1.87;;
13868;SDS011;7004;48.206;16.402;2023-04-24T07:14:06;2.50;;;2.20;;
13868;SDS011;7004;48.206;16.402;2023-04-24T07:16:32;2.13;;;1.93;;
13868;SDS011;7004;48.206;16.402;2023-04-24T07:18:58;2.00;;;1.80;;
13868;SDS011;7004;48.206;16.402;2023-04-24T07:21:25;3.57;;;1.80;;
13868;SDS011;7004;48.206;16.402;2023-04-24T07:23:52;4.30;;;2.50;;
13868;SDS011;7004;48.206;16.402;2023-04-24T07:26:19;2.03;;;1.83;;
13868;SDS011;7004;48.206;16.402;2023-04-24T07:28:46;1.83;;;1.70;;
13868;SDS011;7004;48.206;16.402;2023-04-24T07:31:12;2.97;;;2.10;;
13868;SDS011;7004;48.206;16.402;2023-04-24T07:33:38;2.77;;;2.00;;
13868;SDS011;7004;48.206;16.402;2023-04-24T07:36:04;2.10;;;1.80;;
13868;SDS011;7004;48.206;16.402;2023-04-24T07:38:30;2.80;;;1.80;;
13868;SDS011;7004;48.206;16.402;2023-04-24T07:40:56;1.90;;;1.80;;
13868;SDS011;7004;48.206;16.402;2023-04-24T07:43:22;2.60;;;1.70;;
13868;SDS011;7004;48.206;16.402;2023-04-24T07:45:49;1.83;;;1.73;;
13868;SDS011;7004;48.206;16.402;2023-04-24T07:48:16;2.00;;;1.80;;
13868;SDS011;7004;48.206;16.402;2023-04-24T07:50:43;2.47;;;1.80;;
13868;SDS011;7004;48.206;16.402;2023-04-24T07:53:10;1.83;;;1.73;;
13868;SDS011;7004;48.206;16.402;2023-04-24T07:55:36;1.87;;;1.77;;
13868;SDS011;7004;48.206;16.402;2023-04-24T07:58:02;2.43;;;1.67;;
13868;SDS011;7004;48.206;16.402;2023-04-24T08:00:29;1.70;;;1.60;;
13868;SDS011;7004;48.206;16.402;2023-04-24T08:02:55;1.83;;;1.70;;
13868;SDS011;7004;48.206;16.402;2023-04-24T08:05:21;1.77;;;1.60;;
13868;SDS011;7004;48.206;16.402;2023-04-24T08:07:47;1.70;;;1.60;;
13868;SDS011;7004;48.206;16.402;2023-04-24T08:10:15;1.73;;;1.63;;
13868;SDS011;7004;48.206;16.402;2023-04-24T08:12:41;2.00;;;1.80;;
13868;SDS011;7004;48.206;16.402;2023-04-24T08:15:07;2.07;;;1.90;;
13868;SDS011;7004;48.206;16.402;2023-04-24T08:17:34;1.90;;;1.67;;
13868;SDS011;7004;48.206;16.402;2023-04-24T08:20:01;2.10;;;1.90;;
13868;SDS011;7004;48.206;16.402;2023-04-24T08:22:30;1.90;;;1.70;;
13868;SDS011;7004;48.206;16.402;2023-04-24T08:24:56;1.97;;;1.80;;
13868;SDS011;7004;48.206;16.402;2023-04-24T08:27:25;1.80;;;1.70;;
13868;SDS011;7004;48.206;16.402;2023-04-24T08:29:55;2.07;;;1.90;;
13868;SDS011;7004;48.206;16.402;2023-04-24T08:32:22;3.90;;;1.50;;
13868;SDS011;7004;48.206;16.402;2023-04-24T08:34:48;2.33;;;1.67;;
13868;SDS011;7004;48.206;16.402;2023-04-24T08:37:14;2.10;;;1.60;;
13868;SDS011;7004;48.206;16.402;2023-04-24T08:39:40;2.67;;;1.77;;
13868;SDS011;7004;48.206;16.402;2023-04-24T08:42:07;2.20;;;1.80;;
13868;SDS011;7004;48.206;16.402;2023-04-24T08:44:34;1.73;;;1.63;;
13868;SDS011;7004;48.206;16.402;2023-04-24T08:47:02;1.50;;;1.40;;
13868;SDS011;7004;48.206;16.402;2023-04-24T08:49:28;1.67;;;1.57;;
13868;SDS011;7004;48.206;16.402;2023-04-24T08:51:55;2.20;;;1.50;;
13868;SDS011;7004;48.206;16.402;2023-04-24T08:54:22;1.40;;;1.30;;
13868;SDS011;7004;48.206;16.402;2023-04-24T08:56:48;1.33;;;1.23;;
13868;SDS011;7004;48.206;16.402;2023-04-24T08:59:15;1.37;;;1.27;;
13868;SDS011;7004;48.206;16.402;2023-04-24T09:01:42;1.90;;;1.33;;
13868;SDS011;7004;48.206;16.402;2023-04-24T09:04:10;1.93;;;1.60;;
13868;SDS011;7004;48.206;16.402;2023-04-24T09:06:38;1.60;;;1.50;;
13868;SDS011;7004;48.206;16.402;2023-04-24T09:09:04;1.40;;;1.30;;
13868;SDS011;7004;48.206;16.402;2023-04-24T09:11:31;0.90;;;0.90;;
13868;SDS011;7004;48.206;16.402;2023-04-24T09:14:00;1.10;;;1.10;;
13868;SDS011;7004;48.206;16.402;2023-04-24T09:16:27;1.00;;;0.90;;
13868;SDS011;7004;48.206;16.402;2023-04-24T09:18:53;1.20;;;0.97;;
13868;SDS011;7004;48.206;16.402;2023-04-24T09:21:21;1.00;;;1.00;;
13868;SDS011;7004;48.206;16.402;2023-04-24T09:23:57;1.10;;;1.00;;
13868;SDS011;7004;48.206;16.402;2023-04-24T09:26:25;2.93;;;1.20;;
13868;SDS011;7004;48.206;16.402;2023-04-24T09:28:53;2.47;;;1.20;;
13868;SDS011;7004;48.206;16.402;2023-04-24T09:31:19;0.90;;;0.90;;
13868;SDS011;7004;48.206;16.402;2023-04-24T09:33:57;2.23;;;1.13;;
13868;SDS011;7004;48.206;16.402;2023-04-24T09:39:02;0.97;;;0.93;;
13868;SDS011;7004;48.206;16.402;2023-04-24T09:41:35;1.27;;;1.17;;
13868;SDS011;7004;48.206;16.402;2023-04-24T09:44:13;1.57;;;1.10;;
13868;SDS011;7004;48.206;16.402;2023-04-24T09:46:44;0.90;;;0.90;;
13868;SDS011;7004;48.206;16.402;2023-04-24T09:49:16;1.10;;;0.97;;
13868;SDS011;7004;48.206;16.402;2023-04-24T09:51:48;1.00;;;1.00;;
13868;SDS011;7004;48.206;16.402;2023-04-24T09:54:18;1.33;;;1.23;;
13868;SDS011;7004;48.206;16.402;2023-04-24T09:56:50;1.57;;;1.10;;
13868;SDS011;7004;48.206;16.402;2023-04-24T09:59:17;1.17;;;0.90;;
13868;SDS011;7004;48.206;16.402;2023-04-24T10:01:45;1.27;;;1.17;;
13868;SDS011;7004;48.206;16.402;2023-04-24T10:04:23;1.33;;;1.20;;
13868;SDS011;7004;48.206;16.402;2023-04-24T10:06:55;0.97;;;0.97;;
13868;SDS011;7004;48.206;16.402;2023-04-24T10:09:24;1.20;;;1.10;;
13868;SDS011;7004;48.206;16.402;2023-04-24T10:11:52;1.47;;;1.03;;
13868;SDS011;7004;48.206;16.402;2023-04-24T10:14:23;2.20;;;1.00;;
13868;SDS011;7004;48.206;16.402;2023-04-24T10:16:52;1.23;;;0.90;;
13868;SDS011;7004;48.206;16.402;2023-04-24T10:19:20;1.17;;;1.10;;
13868;SDS011;7004;48.206;16.402;2023-04-24T10:21:46;0.90;;;0.90;;
13868;SDS011;7004;48.206;16.402;2023-04-24T10:24:13;1.07;;;1.00;;
13868;SDS011;7004;48.206;16.402;2023-04-24T10:26:42;1.17;;;1.00;;
13868;SDS011;7004;48.206;16.402;2023-04-24T10:29:11;1.20;;;1.10;;
13868;SDS011;7004;48.206;16.402;2023-04-24T10:31:38;1.20;;;1.10;;
13868;SDS011;7004;48.206;16.402;2023-04-24T10:34:05;1.20;;;1.10;;
13868;SDS011;7004;48.206;16.402;2023-04-24T10:36:34;1.47;;;1.20;;
13868;SDS011;7004;48.206;16.402;2023-04-24T10:39:06;3.13;;;1.43;;
13868;SDS011;7004;48.206;16.402;2023-04-24T10:41:37;2.40;;;1.67;;
13868;SDS011;7004;48.206;16.402;2023-04-24T10:44:07;1.00;;;1.00;;
13868;SDS011;7004;48.206;16.402;2023-04-24T10:46:38;1.57;;;1.30;;
13868;SDS011;7004;48.206;16.402;2023-04-24T10:49:09;1.47;;;1.37;;
13868;SDS011;7004;48.206;16.402;2023-04-24T10:51:48;1.20;;;1.10;;
13868;SDS011;7004;48.206;16.402;2023-04-24T11:02:50;1.73;;;1.37;;
13868;SDS011;7004;48.206;16.402;2023-04-24T11:05:19;1.40;;;1.30;;
13868;SDS011;7004;48.206;16.402;2023-04-24T11:10:47;1.53;;;1.20;;
13868;SDS011;7004;48.206;16.402;2023-04-24T11:13:27;1.40;;;1.30;;
13868;SDS011;7004;48.206;16.402;2023-04-24T11:19:07;1.83;;;1.60;;
13868;SDS011;7004;48.206;16.402;2023-04-24T11:21:48;1.70;;;1.40;;
13868;SDS011;7004;48.206;16.402;2023-04-24T11:24:26;1.30;;;1.20;;
13868;SDS011;7004;48.206;16.402;2023-04-24T11:29:42;1.40;;;1.30;;
13868;SDS011;7004;48.206;16.402;2023-04-24T11:32:30;2.70;;;1.90;;
13868;SDS011;7004;48.206;16.402;2023-04-24T11:35:06;2.13;;;1.77;;
13868;SDS011;7004;48.206;16.402;2023-04-24T11:37:44;3.07;;;2.40;;
13868;SDS011;7004;48.206;16.402;2023-04-24T11:40:16;1.60;;;1.50;;
13868;SDS011;7004;48.206;16.402;2023-04-24T11:42:46;1.80;;;1.23;;
13868;SDS011;7004;48.206;16.402;2023-04-24T11:45:14;3.43;;;1.57;;
13868;SDS011;7004;48.206;16.402;2023-04-24T11:47:46;1.47;;;1.37;;
13868;SDS011;7004;48.206;16.402;2023-04-24T11:50:17;1.40;;;1.30;;
13868;SDS011;7004;48.206;16.402;2023-04-24T11:52:46;1.80;;;1.23;;
13868;SDS011;7004;48.206;16.402;2023-04-24T11:57:46;1.00;;;1.00;;
13868;SDS011;7004;48.206;16.402;2023-04-24T12:00:18;1.40;;;1.30;;
13868;SDS011;7004;48.206;16.402;2023-04-24T12:02:47;2.90;;;1.30;;
13868;SDS011;7004;48.206;16.402;2023-04-24T12:05:23;1.97;;;1.53;;
13868;SDS011;7004;48.206;16.402;2023-04-24T12:07:52;1.60;;;1.33;;
13868;SDS011;7004;48.206;16.402;2023-04-24T12:10:22;1.23;;;1.13;;
13868;SDS011;7004;48.206;16.402;2023-04-24T12:12:55;2.67;;;1.30;;
13868;SDS011;7004;48.206;16.402;2023-04-24T12:15:23;1.47;;;1.30;;
13868;SDS011;7004;48.206;16.402;2023-04-24T12:17:50;1.03;;;1.03;;
13868;SDS011;7004;48.206;16.402;2023-04-24T12:20:28;1.40;;;1.30;;
13868;SDS011;7004;48.206;16.402;2023-04-24T12:22:57;1.40;;;1.30;;
13868;SDS011;7004;48.206;16.402;2023-04-24T12:25:26;3.03;;;1.30;;
13868;SDS011;7004;48.206;16.402;2023-04-24T12:27:54;2.83;;;1.27;;
13868;SDS011;7004;48.206;16.402;2023-04-24T12:30:34;1.30;;;1.20;;
13868;SDS011;7004;48.206;16.402;2023-04-24T12:33:05;1.00;;;1.00;;
13868;SDS011;7004;48.206;16.402;2023-04-24T12:35:32;1.70;;;1.60;;
13868;SDS011;7004;48.206;16.402;2023-04-24T12:38:07;2.70;;;1.33;;
13868;SDS011;7004;48.206;16.402;2023-04-24T12:40:38;1.40;;;1.30;;
13868;SDS011;7004;48.206;16.402;2023-04-24T12:45:44;1.20;;;1.10;;
13868;SDS011;7004;48.206;16.402;2023-04-24T12:48:12;1.40;;;1.30;;
13868;SDS011;7004;48.206;16.402;2023-04-24T12:50:39;1.53;;;1.43;;
13868;SDS011;7004;48.206;16.402;2023-04-24T12:53:05;1.40;;;1.30;;
13868;SDS011;7004;48.206;16.402;2023-04-24T12:55:34;1.53;;;1.40;;
13868;SDS011;7004;48.206;16.402;2023-04-24T12:58:00;2.00;;;1.50;;
13868;SDS011;7004;48.206;16.402;2023-04-24T13:00:28;3.97;;;1.50;;
13868;SDS011;7004;48.206;16.402;2023-04-24T13:02:54;1.60;;;1.50;;
13868;SDS011;7004;48.206;16.402;2023-04-24T13:05:21;1.63;;;1.53;;
13868;SDS011;7004;48.206;16.402;2023-04-24T13:07:47;2.03;;;1.50;;
13868;SDS011;7004;48.206;16.402;2023-04-24T13:10:13;3.43;;;1.70;;
13868;SDS011;7004;48.206;16.402;2023-04-24T13:12:39;1.97;;;1.60;;
13868;SDS011;7004;48.206;16.402;2023-04-24T13:15:06;1.60;;;1.50;;
13868;SDS011;7004;48.206;16.402;2023-04-24T13:17:32;3.53;;;1.90;;
13868;SDS011;7004;48.206;16.402;2023-04-24T13:19:58;2.50;;;1.90;;
13868;SDS011;7004;48.206;16.402;2023-04-24T13:22:24;2.13;;;1.73;;
13868;SDS011;7004;48.206;16.402;2023-04-24T13:24:51;1.93;;;1.77;;
13868;SDS011;7004;48.206;16.402;2023-04-24T13:27:17;1.80;;;1.70;;
13868;SDS011;7004;48.206;16.402;2023-04-24T13:29:43;2.13;;;1.93;;
13868;SDS011;7004;48.206;16.402;2023-04-24T13:32:12;2.03;;;1.90;;
13868;SDS011;7004;48.206;16.402;2023-04-24T13:34:39;2.03;;;1.83;;
13868;SDS011;7004;48.206;16.402;2023-04-24T13:37:05;1.90;;;1.80;;
13868;SDS011;7004;48.206;16.402;2023-04-24T13:39:33;2.00;;;1.90;;
13868;SDS011;7004;48.206;16.402;2023-04-24T13:41:59;2.30;;;2.10;;
13868;SDS011;7004;48.206;16.402;2023-04-24T13:44:25;2.30;;;2.10;;
13868;SDS011;7004;48.206;16.402;2023-04-24T13:46:53;1.80;;;1.70;;
13868;SDS011;7004;48.206;16.402;2023-04-24T13:49:22;2.33;;;2.13;;
13868;SDS011;7004;48.206;16.402;2023-04-24T13:51:52;3.60;;;2.13;;
13868;SDS011;7004;48.206;16.402;2023-04-24T13:54:20;2.37;;;2.17;;
13868;SDS011;7004;48.206;16.402;2023-04-24T13:56:48;2.40;;;2.20;;
13868;SDS011;7004;48.206;16.402;2023-04-24T13:59:15;2.93;;;2.20;;
13868;SDS011;7004;48.206;16.402;2023-04-24T14:01:41;2.30;;;1.97;;
13868;SDS011;7004;48.206;16.402;2023-04-24T14:04:07;4.97;;;3.87;;
13868;SDS011;7004;48.206;16.402;2023-04-24T14:06:33;5.77;;;5.27;;
13868;SDS011;7004;48.206;16.402;2023-04-24T14:08:59;3.83;;;3.53;;
13868;SDS011;7004;48.206;16.402;2023-04-24T14:11:25;3.47;;;3.17;;
13868;SDS011;7004;48.206;16.402;2023-04-24T14:13:52;2.67;;;2.07;;
13868;SDS011;7004;48.206;16.402;2023-04-24T14:16:21;2.43;;;2.00;;
13868;SDS011;7004;48.206;16.402;2023-04-24T14:18:48;1.90;;;1.80;;
13868;SDS011;7004;48.206;16.402;2023-04-24T14:21:14;4.00;;;1.80;;
13868;SDS011;7004;48.206;16.402;2023-04-24T14:23:41;1.87;;;1.77;;
13868;SDS011;7004;48.206;16.402;2023-04-24T14:26:07;3.57;;;3.23;;
13868;SDS011;7004;48.206;16.402;2023-04-24T14:28:33;2.20;;;2.00;;
13868;SDS011;7004;48.206;16.402;2023-04-24T14:30:59;2.00;;;1.90;;
13868;SDS011;7004;48.206;16.402;2023-04-24T14:33:25;1.93;;;1.70;;
13868;SDS011;7004;48.206;16.402;2023-04-24T14:35:51;3.43;;;1.57;;
13868;SDS011;7004;48.206;16.402;2023-04-24T14:38:17;1.70;;;1.60;;
13868;SDS011;7004;48.206;16.402;2023-04-24T14:40:43;1.73;;;1.63;;
13868;SDS011;7004;48.206;16.402;2023-04-24T14:43:10;1.90;;;1.50;;
13868;SDS011;7004;48.206;16.402;2023-04-24T14:45:39;2.23;;;2.03;;
13868;SDS011;7004;48.206;16.402;2023-04-24T14:48:06;1.80;;;1.70;;
13868;SDS011;7004;48.206;16.402;2023-04-24T14:50:33;2.17;;;1.87;;
13868;SDS011;7004;48.206;16.402;2023-04-24T14:53:00;2.00;;;1.90;;
13868;SDS011;7004;48.206;16.402;2023-04-24T14:55:29;2.30;;;2.10;;
13868;SDS011;7004;48.206;16.402;2023-04-24T14:57:55;1.93;;;1.70;;
13868;SDS011;7004;48.206;16.402;2023-04-24T15:00:22;2.47;;;2.00;;
13868;SDS011;7004;48.206;16.402;2023-04-24T15:02:51;1.80;;;1.70;;
13868;SDS011;7004;48.206;16.402;2023-04-24T15:05:19;2.47;;;1.73;;
13868;SDS011;7004;48.206;16.402;2023-04-24T15:07:45;1.93;;;1.73;;
13868;SDS011;7004;48.206;16.402;2023-04-24T15:10:11;2.23;;;1.70;;
13868;SDS011;7004;48.206;16.402;2023-04-24T15:12:38;1.50;;;1.40;;
13868;SDS011;7004;48.206;16.402;2023-04-24T15:15:04;1.60;;;1.50;;